createdAt,value
2023-03-19T00:00:37.146Z,62.96
2023-03-19T00:03:06.741Z,61.37
2023-03-19T00:05:35.169Z,62.11
2023-03-19T00:08:05.504Z,62.13
2023-03-19T00:10:38.002Z,62.50
2023-03-19T00:13:10.759Z,62.06
2023-03-19T00:15:39.221Z,62.40
2023-03-19T00:18:10.303Z,62.13
2023-03-19T00:20:41.114Z,60.50
2023-03-19T00:23:13.445Z,60.59
2023-03-19T00:25:45.637Z,61.71
2023-03-19T00:28:15.488Z,60.92
2023-03-19T00:30:45.092Z,60.34
2023-03-19T00:33:18.409Z,60.63
2023-03-19T00:35:49.668Z,60.78
2023-03-19T00:38:17.474Z,60.47
2023-03-19T00:40:45.537Z,62.00
2023-03-19T00:43:14.205Z,62.90
2023-03-19T00:45:42.362Z,62.43
2023-03-19T00:48:13.595Z,62.48
2023-03-19T00:50:45.423Z,60.81
2023-03-19T00:53:15.359Z,60.13
2023-03-19T00:55:47.431Z,59.83
2023-03-19T00:58:15.456Z,60.16
2023-03-19T01:00:43.952Z,61.20
2023-03-19T01:03:11.719Z,63.73
2023-03-19T01:05:41.877Z,63.11
2023-03-19T01:08:11.166Z,63.11
2023-03-19T01:10:38.974Z,65.71
2023-03-19T01:13:07.052Z,67.61
2023-03-19T01:15:36.852Z,68.47
2023-03-19T01:18:05.140Z,67.83
2023-03-19T01:20:33.686Z,66.61
2023-03-19T01:23:04.589Z,68.25
2023-03-19T01:25:36.376Z,68.17
2023-03-19T01:28:04.427Z,68.63
2023-03-19T01:30:35.401Z,69.69
2023-03-19T01:33:03.472Z,67.99
2023-03-19T01:35:33.231Z,68.31
2023-03-19T01:38:01.379Z,69.83
2023-03-19T01:40:29.673Z,71.28
2023-03-19T01:43:15.072Z,72.88
2023-03-19T01:45:43.867Z,73.41
2023-03-19T01:48:19.498Z,75.34
2023-03-19T01:50:48.349Z,75.30
2023-03-19T01:53:19.514Z,74.75
2023-03-19T01:55:53.238Z,76.38
2023-03-19T01:58:25.995Z,79.33
2023-03-19T02:00:54.201Z,77.75
2023-03-19T02:03:22.184Z,78.07
2023-03-19T02:05:50.717Z,79.15
2023-03-19T02:08:18.461Z,79.72
2023-03-19T02:10:48.274Z,78.55
2023-03-19T02:13:16.364Z,70.23
2023-03-19T02:15:47.174Z,70.48
2023-03-19T02:18:16.018Z,67.86
2023-03-19T02:20:52.356Z,72.82
2023-03-19T02:23:34.471Z,73.47
2023-03-19T02:26:08.085Z,74.44
2023-03-19T02:28:44.603Z,76.46
2023-03-19T02:31:13.275Z,73.97
2023-03-19T02:33:44.108Z,73.19
2023-03-19T02:36:20.963Z,73.52
2023-03-19T02:38:49.667Z,76.52
2023-03-19T02:41:19.385Z,77.09
2023-03-19T02:43:47.307Z,76.54
2023-03-19T02:46:16.710Z,76.03
2023-03-19T02:48:46.498Z,76.26
2023-03-19T02:51:14.544Z,74.95
2023-03-19T02:53:43.283Z,76.23
2023-03-19T02:56:11.152Z,78.79
2023-03-19T02:58:40.767Z,80.31
2023-03-19T03:01:08.834Z,78.46
2023-03-19T03:03:39.400Z,79.43
2023-03-19T03:06:09.373Z,78.46
2023-03-19T03:08:37.955Z,80.47
2023-03-19T03:11:05.880Z,79.29
2023-03-19T03:13:37.254Z,77.00
2023-03-19T03:16:09.685Z,78.38
2023-03-19T03:18:37.713Z,77.70
2023-03-19T03:21:05.608Z,76.96
2023-03-19T03:23:33.349Z,76.91
2023-03-19T03:26:06.919Z,76.91
2023-03-19T03:28:35.763Z,76.27
2023-03-19T03:31:04.336Z,75.77
2023-03-19T03:33:35.341Z,75.26
2023-03-19T03:36:07.050Z,75.83
2023-03-19T03:38:34.828Z,74.84
2023-03-19T03:41:03.821Z,74.00
2023-03-19T03:43:39.640Z,76.69
2023-03-19T03:46:10.064Z,77.47
2023-03-19T03:48:39.626Z,79.09
2023-03-19T03:51:07.598Z,80.91
2023-03-19T03:53:35.670Z,82.67
2023-03-19T03:56:03.621Z,82.54
2023-03-19T03:58:31.827Z,83.42
2023-03-19T04:01:02.070Z,81.81
2023-03-19T04:03:35.248Z,83.69
2023-03-19T04:06:04.514Z,83.13
2023-03-19T04:08:32.270Z,81.80
2023-03-19T04:11:02.291Z,80.68
2023-03-19T04:13:36.711Z,78.27
2023-03-19T04:16:08.420Z,77.67
2023-03-19T04:18:36.776Z,76.24
2023-03-19T04:21:06.745Z,75.62
2023-03-19T04:23:34.600Z,76.80
2023-03-19T04:26:05.541Z,76.16
2023-03-19T04:28:35.792Z,76.04
2023-03-19T04:31:05.022Z,75.49
2023-03-19T04:33:33.911Z,75.55
2023-03-19T04:36:01.855Z,76.75
2023-03-19T04:38:32.017Z,78.10
2023-03-19T04:41:01.842Z,78.68
2023-03-19T04:43:30.088Z,76.26
2023-03-19T04:46:01.366Z,78.14
2023-03-19T04:48:32.178Z,80.12
2023-03-19T04:51:03.024Z,79.78
2023-03-19T04:53:39.949Z,80.64
2023-03-19T04:56:08.845Z,82.16
2023-03-19T04:58:36.640Z,82.25
2023-03-19T05:01:07.209Z,81.53
2023-03-19T05:03:40.142Z,80.22
2023-03-19T05:06:07.960Z,79.69
2023-03-19T05:08:39.856Z,79.34
2023-03-19T05:11:07.611Z,79.43
2023-03-19T05:13:40.593Z,80.50
2023-03-19T05:16:09.433Z,79.95
2023-03-19T05:18:41.103Z,79.98
2023-03-19T05:21:11.579Z,78.72
2023-03-19T05:23:40.956Z,79.33
2023-03-19T05:26:09.686Z,80.09
2023-03-19T05:28:37.409Z,80.72
2023-03-19T05:31:08.381Z,79.04
2023-03-19T05:33:39.088Z,82.36
2023-03-19T05:36:07.855Z,83.23
2023-03-19T05:38:39.510Z,82.76
2023-03-19T05:41:12.481Z,82.09
2023-03-19T05:43:43.099Z,80.98
2023-03-19T05:46:11.471Z,80.11
2023-03-19T05:48:42.330Z,83.05
2023-03-19T05:51:10.482Z,82.96
2023-03-19T05:53:42.346Z,81.15
2023-03-19T05:56:14.572Z,79.73
2023-03-19T05:58:42.403Z,80.21
2023-03-19T06:01:12.134Z,79.70
2023-03-19T06:03:40.266Z,78.23
2023-03-19T06:06:09.060Z,78.56
2023-03-19T06:08:37.146Z,77.88
2023-03-19T06:11:05.313Z,78.47
2023-03-19T06:13:34.831Z,78.89
2023-03-19T06:16:07.885Z,76.74
2023-03-19T06:18:38.364Z,77.59
2023-03-19T06:21:07.046Z,76.97
2023-03-19T06:23:38.341Z,77.74
2023-03-19T06:26:08.470Z,78.28
2023-03-19T06:28:38.758Z,77.38
2023-03-19T06:31:09.407Z,75.53
2023-03-19T06:33:37.719Z,75.20
2023-03-19T06:36:06.509Z,76.23
2023-03-19T06:38:35.620Z,75.32
2023-03-19T06:41:03.785Z,75.54
2023-03-19T06:43:36.952Z,76.44
2023-03-19T06:46:11.249Z,76.54
2023-03-19T06:48:39.636Z,76.94
2023-03-19T06:51:08.783Z,78.42
2023-03-19T06:53:41.810Z,75.87
2023-03-19T06:56:14.751Z,76.40
2023-03-19T06:58:42.782Z,76.01
2023-03-19T07:01:14.912Z,76.69
2023-03-19T07:03:45.018Z,76.58
2023-03-19T07:06:13.332Z,75.95
2023-03-19T07:08:46.248Z,74.96
2023-03-19T07:11:15.053Z,75.66
2023-03-19T07:13:44.069Z,74.08
2023-03-19T07:16:13.329Z,74.15
2023-03-19T07:18:41.622Z,75.47
2023-03-19T07:21:09.453Z,75.14
2023-03-19T07:23:37.314Z,75.41
2023-03-19T07:26:05.738Z,75.32
2023-03-19T07:28:33.577Z,77.06
2023-03-19T07:31:01.497Z,77.21
2023-03-19T07:33:30.976Z,75.43
2023-03-19T07:36:01.134Z,76.09
2023-03-19T07:38:29.376Z,75.44
2023-03-19T07:41:02.449Z,74.95
2023-03-19T07:43:33.846Z,72.43
2023-03-19T07:46:01.992Z,72.63
2023-03-19T07:48:31.120Z,70.95
2023-03-19T07:51:02.647Z,70.74
2023-03-19T07:53:30.499Z,69.12
2023-03-19T07:55:58.545Z,68.92
2023-03-19T07:58:30.525Z,68.70
2023-03-19T08:01:01.928Z,68.75
2023-03-19T08:03:31.251Z,68.56
2023-03-19T08:06:01.310Z,67.58
2023-03-19T08:08:29.318Z,67.40
2023-03-19T08:10:57.591Z,67.66
2023-03-19T08:13:25.469Z,66.43
2023-03-19T08:15:53.578Z,66.27
2023-03-19T08:18:21.296Z,65.47
2023-03-19T08:20:51.213Z,66.12
2023-03-19T08:23:20.983Z,66.08
2023-03-19T08:25:52.053Z,66.73
2023-03-19T08:28:19.947Z,66.44
2023-03-19T08:30:48.086Z,67.80
2023-03-19T08:33:18.600Z,67.79
2023-03-19T08:35:46.662Z,66.57
2023-03-19T08:38:18.472Z,68.41
2023-03-19T08:40:46.246Z,67.56
2023-03-19T08:43:14.756Z,67.02
2023-03-19T08:45:47.526Z,67.01
2023-03-19T08:48:15.509Z,67.57
2023-03-19T08:50:46.461Z,69.40
2023-03-19T08:53:18.818Z,66.98
2023-03-19T08:55:46.748Z,65.49
2023-03-19T08:58:17.118Z,66.94
2023-03-19T09:00:45.226Z,66.64
2023-03-19T09:03:17.845Z,66.20
2023-03-19T09:05:46.291Z,66.03
2023-03-19T09:08:15.716Z,64.89
2023-03-19T09:10:51.440Z,62.71
2023-03-19T09:13:22.093Z,63.37
2023-03-19T09:15:53.837Z,61.39
2023-03-19T09:18:35.530Z,63.28
2023-03-19T09:21:06.069Z,61.76
2023-03-19T09:23:39.138Z,62.97
2023-03-19T09:26:09.710Z,64.40
2023-03-19T09:28:38.222Z,62.40
2023-03-19T09:31:11.620Z,61.33
2023-03-19T09:33:39.531Z,61.12
2023-03-19T09:36:08.012Z,61.16
2023-03-19T09:38:39.406Z,61.39
2023-03-19T09:41:13.064Z,62.87
2023-03-19T09:43:52.290Z,61.64
2023-03-19T09:46:23.064Z,60.75
2023-03-19T09:48:56.044Z,60.68
2023-03-19T09:51:27.976Z,60.41
2023-03-19T09:54:03.854Z,59.59
2023-03-19T09:56:34.181Z,59.39
2023-03-19T09:59:04.323Z,58.40
2023-03-19T10:01:39.255Z,59.12
2023-03-19T10:04:33.777Z,59.12
2023-03-19T10:07:10.606Z,60.38
2023-03-19T10:09:49.377Z,58.65
2023-03-19T10:12:26.780Z,60.00
2023-03-19T10:15:19.901Z,59.63
2023-03-19T10:17:59.054Z,58.53
2023-03-19T10:20:37.013Z,58.08
2023-03-19T10:23:21.957Z,56.48
2023-03-19T10:25:53.789Z,57.73
2023-03-19T10:28:25.559Z,58.18
2023-03-19T10:31:00.035Z,57.38
2023-03-19T10:33:38.801Z,57.18
2023-03-19T10:36:10.366Z,57.60
2023-03-19T10:38:41.405Z,57.70
2023-03-19T10:41:33.168Z,57.83
2023-03-19T10:44:04.614Z,58.00
2023-03-19T10:46:39.537Z,58.65
2023-03-19T10:49:13.245Z,57.23
2023-03-19T10:51:43.787Z,57.25
2023-03-19T10:54:30.528Z,56.35
2023-03-19T10:57:03.746Z,55.46
2023-03-19T10:59:35.801Z,56.08
2023-03-19T11:02:20.153Z,56.09
2023-03-19T11:04:52.131Z,55.16
2023-03-19T11:07:24.707Z,54.93
2023-03-19T11:09:56.015Z,55.19
2023-03-19T11:12:33.895Z,55.74
2023-03-19T11:15:05.339Z,54.68
2023-03-19T11:17:41.765Z,53.88
2023-03-19T11:20:21.263Z,55.00
2023-03-19T11:22:50.553Z,55.57
2023-03-19T11:25:20.517Z,53.83
2023-03-19T11:28:04.036Z,54.65
2023-03-19T11:30:40.637Z,54.75
2023-03-19T11:33:41.875Z,54.03
2023-03-19T11:36:14.300Z,53.02
2023-03-19T11:38:54.589Z,51.82
2023-03-19T11:41:29.539Z,52.53
2023-03-19T11:44:01.489Z,51.46
2023-03-19T11:46:37.362Z,53.17
2023-03-19T11:49:33.049Z,52.27
2023-03-19T11:52:05.280Z,52.74
2023-03-19T11:54:46.693Z,53.80
2023-03-19T11:57:27.607Z,53.53
2023-03-19T12:00:11.034Z,51.96
2023-03-19T12:03:08.295Z,51.88
2023-03-19T12:05:44.845Z,52.45
2023-03-19T12:08:21.350Z,53.77
2023-03-19T12:11:00.037Z,55.39
2023-03-19T12:13:39.404Z,58.17
2023-03-19T12:16:18.390Z,58.83
2023-03-19T12:19:05.240Z,59.05
2023-03-19T12:21:43.973Z,57.80
2023-03-19T12:24:15.943Z,60.89
2023-03-19T12:26:52.661Z,62.47
2023-03-19T12:29:28.880Z,63.03
2023-03-19T12:32:13.811Z,64.85
2023-03-19T12:34:43.856Z,66.71
2023-03-19T12:37:23.046Z,66.01
2023-03-19T12:40:01.688Z,64.25
2023-03-19T12:42:32.821Z,64.69
2023-03-19T12:45:01.254Z,64.49
2023-03-19T12:47:36.134Z,65.78
2023-03-19T12:50:06.064Z,64.49
2023-03-19T12:52:37.085Z,65.51
2023-03-19T12:55:13.313Z,64.73
2023-03-19T12:57:46.588Z,63.76
2023-03-19T13:00:22.644Z,63.20
2023-03-19T13:02:57.861Z,63.76
2023-03-19T13:05:35.752Z,63.43
2023-03-19T13:08:08.824Z,62.04
2023-03-19T13:10:36.931Z,61.59
2023-03-19T13:13:16.401Z,61.63
2023-03-19T13:15:51.232Z,60.56
2023-03-19T13:18:26.376Z,58.40
2023-03-19T13:21:06.171Z,59.59
2023-03-19T13:23:36.936Z,57.29
2023-03-19T13:26:07.944Z,60.44
2023-03-19T13:28:36.962Z,63.03
2023-03-19T13:31:19.028Z,63.27
2023-03-19T13:33:55.457Z,63.80
2023-03-19T13:36:29.256Z,63.54
2023-03-19T13:38:59.960Z,62.54
2023-03-19T13:42:03.609Z,61.73
2023-03-19T13:44:37.527Z,61.72
2023-03-19T13:47:45.417Z,61.96
2023-03-19T13:50:52.560Z,63.55
2023-03-19T13:53:34.542Z,62.55
2023-03-19T13:56:16.002Z,61.13
2023-03-19T13:59:25.154Z,62.25
2023-03-19T14:02:00.619Z,60.06
2023-03-19T14:04:30.804Z,59.50
2023-03-19T14:07:14.248Z,62.12
2023-03-19T14:09:45.926Z,64.86
2023-03-19T14:12:30.880Z,64.01
2023-03-19T14:15:01.377Z,63.88
2023-03-19T14:17:46.874Z,63.80
2023-03-19T14:20:37.071Z,62.87
2023-03-19T14:23:38.381Z,62.21
2023-03-19T14:26:18.145Z,62.67
2023-03-19T14:29:13.344Z,63.87
2023-03-19T14:31:44.124Z,61.80
2023-03-19T14:34:22.494Z,62.09
2023-03-19T14:36:55.507Z,62.88
2023-03-19T14:39:27.468Z,62.02
2023-03-19T14:42:02.789Z,62.56
2023-03-19T14:45:18.183Z,63.40
2023-03-19T14:48:25.269Z,64.20
2023-03-19T14:51:18.957Z,65.97
2023-03-19T14:53:50.046Z,66.72
2023-03-19T14:56:22.461Z,67.62
2023-03-19T14:58:52.352Z,67.21
2023-03-19T15:01:26.990Z,67.71
2023-03-19T15:03:56.599Z,67.82
2023-03-19T15:06:27.412Z,68.69
2023-03-19T15:08:57.036Z,68.91
2023-03-19T15:11:38.359Z,71.28
2023-03-19T15:14:19.620Z,72.24
2023-03-19T15:16:54.551Z,70.21
2023-03-19T15:19:25.975Z,69.25
2023-03-19T15:22:06.098Z,69.18
2023-03-19T15:24:39.020Z,70.85
2023-03-19T15:27:23.716Z,70.33
2023-03-19T15:29:52.341Z,70.50
2023-03-19T15:32:52.085Z,70.25
2023-03-19T15:35:24.652Z,70.73
2023-03-19T15:37:55.743Z,74.37
2023-03-19T15:40:30.830Z,76.74
2023-03-19T15:43:03.865Z,76.09
2023-03-19T15:45:33.917Z,75.57
2023-03-19T15:48:04.598Z,75.27
2023-03-19T15:50:37.375Z,76.41
2023-03-19T15:53:07.777Z,75.34
2023-03-19T15:55:38.181Z,75.92
2023-03-19T15:58:09.834Z,76.12
2023-03-19T16:00:40.297Z,76.30
2023-03-19T16:03:11.562Z,81.34
2023-03-19T16:05:53.695Z,83.18
2023-03-19T16:08:23.910Z,84.37
2023-03-19T16:10:54.935Z,81.59
2023-03-19T16:13:28.983Z,82.51
2023-03-19T16:16:10.328Z,81.97
2023-03-19T16:18:52.137Z,82.15
2023-03-19T16:21:25.092Z,80.89
2023-03-19T16:24:01.405Z,81.49
2023-03-19T16:26:32.621Z,82.80
2023-03-19T16:29:07.110Z,80.95
2023-03-19T16:31:46.065Z,80.66
2023-03-19T16:34:30.708Z,77.79
2023-03-19T16:37:00.046Z,75.70
2023-03-19T16:39:35.117Z,76.46
2023-03-19T16:42:19.229Z,75.87
2023-03-19T16:44:50.016Z,73.81
2023-03-19T16:47:17.881Z,74.86
2023-03-19T16:50:00.436Z,73.70
2023-03-19T16:52:38.473Z,72.28
2023-03-19T16:55:11.691Z,72.72
2023-03-19T16:57:39.532Z,73.24
2023-03-19T17:00:13.988Z,72.16
2023-03-19T17:02:44.032Z,71.27
2023-03-19T17:05:14.324Z,72.02
2023-03-19T17:07:42.429Z,71.50
2023-03-19T17:10:14.455Z,72.14
2023-03-19T17:12:45.819Z,72.17
2023-03-19T17:15:23.250Z,71.80
2023-03-19T17:17:51.347Z,72.00
2023-03-19T17:20:26.415Z,73.13
2023-03-19T17:22:57.378Z,72.76
2023-03-19T17:25:25.798Z,74.09
2023-03-19T17:27:53.582Z,75.54
2023-03-19T17:30:28.766Z,76.08
2023-03-19T17:33:00.334Z,74.61
2023-03-19T17:35:29.360Z,73.50
2023-03-19T17:37:58.570Z,73.22
2023-03-19T17:40:28.001Z,72.93
2023-03-19T17:43:07.953Z,74.92
2023-03-19T17:45:37.152Z,75.02
2023-03-19T17:48:05.112Z,73.98
2023-03-19T17:50:33.606Z,75.11
2023-03-19T17:53:07.293Z,75.96
2023-03-19T17:55:38.922Z,77.99
2023-03-19T17:58:06.876Z,76.08
2023-03-19T18:00:38.007Z,75.90
2023-03-19T18:03:07.861Z,76.12
2023-03-19T18:05:37.003Z,75.46
2023-03-19T18:08:04.875Z,74.56
2023-03-19T18:10:43.857Z,73.93
2023-03-19T18:13:37.912Z,73.33
2023-03-19T18:16:07.048Z,73.45
2023-03-19T18:18:36.367Z,73.05
2023-03-19T18:21:05.632Z,73.54
2023-03-19T18:23:36.144Z,72.93
2023-03-19T18:26:03.972Z,71.97
2023-03-19T18:28:32.131Z,71.65
2023-03-19T18:31:00.774Z,72.24
2023-03-19T18:33:32.696Z,71.79
2023-03-19T18:36:03.139Z,72.69
2023-03-19T18:38:33.880Z,72.89
2023-03-19T18:41:04.313Z,73.14
2023-03-19T18:43:41.223Z,74.13
2023-03-19T18:46:24.060Z,72.55
2023-03-19T18:48:55.068Z,72.95
2023-03-19T18:51:24.240Z,73.05
2023-03-19T18:53:52.199Z,73.85
2023-03-19T18:56:24.894Z,74.86
2023-03-19T18:58:56.573Z,74.05
2023-03-19T19:01:25.284Z,73.54
2023-03-19T19:03:59.117Z,74.88
2023-03-19T19:06:45.899Z,74.58
2023-03-19T19:09:18.192Z,74.47
2023-03-19T19:11:49.588Z,78.35
2023-03-19T19:14:20.094Z,78.38
2023-03-19T19:16:48.026Z,78.11
2023-03-19T19:19:20.083Z,79.45
2023-03-19T19:21:49.781Z,78.72
2023-03-19T19:24:18.116Z,76.97
2023-03-19T19:26:47.135Z,77.82
2023-03-19T19:29:23.765Z,77.40
2023-03-19T19:31:51.836Z,76.67
2023-03-19T19:34:19.681Z,76.99
2023-03-19T19:36:50.907Z,77.52
2023-03-19T19:39:20.930Z,78.45
2023-03-19T19:41:48.990Z,78.21
2023-03-19T19:44:20.013Z,77.71
2023-03-19T19:46:47.888Z,76.01
2023-03-19T19:49:16.611Z,77.18
2023-03-19T19:51:44.528Z,77.56
2023-03-19T19:54:15.116Z,77.06
2023-03-19T19:56:49.606Z,76.12
2023-03-19T19:59:18.258Z,77.42
2023-03-19T20:01:48.938Z,76.59
2023-03-19T20:04:17.728Z,76.53
2023-03-19T20:06:45.849Z,75.86
2023-03-19T20:09:19.958Z,76.48
2023-03-19T20:11:48.027Z,77.35
2023-03-19T20:14:19.366Z,76.76
2023-03-19T20:16:49.124Z,78.66
2023-03-19T20:19:20.354Z,79.24
2023-03-19T20:21:48.838Z,79.38
2023-03-19T20:24:21.585Z,78.56
2023-03-19T20:26:49.566Z,78.06
2023-03-19T20:29:17.840Z,77.28
2023-03-19T20:31:48.045Z,75.37
2023-03-19T20:34:36.447Z,76.52
2023-03-19T20:37:11.099Z,76.39
2023-03-19T20:39:41.263Z,77.03
2023-03-19T20:42:14.644Z,78.08
2023-03-19T20:44:52.665Z,78.03
2023-03-19T20:47:22.638Z,77.08
2023-03-19T20:49:50.589Z,77.07
2023-03-19T20:52:19.699Z,77.73
2023-03-19T20:54:56.903Z,78.70
2023-03-19T20:57:29.341Z,77.71
2023-03-19T21:00:03.383Z,75.95
2023-03-19T21:02:34.145Z,76.30
2023-03-19T21:05:07.488Z,77.47
2023-03-19T21:07:35.327Z,78.07
2023-03-19T21:10:16.054Z,78.75
2023-03-19T21:12:43.828Z,78.82
2023-03-19T21:15:16.405Z,78.89
2023-03-19T21:17:44.402Z,77.88
2023-03-19T21:20:18.884Z,77.56
2023-03-19T21:22:56.609Z,76.68
2023-03-19T21:25:28.938Z,76.18
2023-03-19T21:28:00.247Z,75.11
2023-03-19T21:30:28.693Z,76.55
2023-03-19T21:32:57.097Z,75.94
2023-03-19T21:35:30.821Z,75.59
2023-03-19T21:38:02.089Z,77.29
2023-03-19T21:40:32.240Z,77.46
2023-03-19T21:43:03.211Z,77.74
2023-03-19T21:45:33.909Z,77.35
2023-03-19T21:48:18.032Z,76.02
2023-03-19T21:50:46.223Z,76.47
2023-03-19T21:53:18.504Z,78.04
2023-03-19T21:55:49.208Z,77.69
2023-03-19T21:58:19.604Z,77.24
2023-03-19T22:00:51.586Z,76.20
2023-03-19T22:03:21.719Z,76.94
2023-03-19T22:05:54.156Z,77.35
2023-03-19T22:08:27.442Z,77.63
2023-03-19T22:10:58.735Z,78.90
2023-03-19T22:13:31.794Z,79.09
2023-03-19T22:16:02.234Z,78.76
2023-03-19T22:18:30.438Z,80.32
2023-03-19T22:21:01.132Z,81.05
2023-03-19T22:23:29.915Z,78.09
2023-03-19T22:26:01.298Z,77.38
2023-03-19T22:28:31.939Z,82.84
2023-03-19T22:31:00.150Z,84.35
2023-03-19T22:33:28.502Z,83.96
2023-03-19T22:35:56.547Z,86.88
2023-03-19T22:38:28.643Z,87.33
2023-03-19T22:40:57.321Z,85.42
2023-03-19T22:43:28.881Z,86.90
2023-03-19T22:45:58.997Z,87.57
2023-03-19T22:48:29.449Z,87.20
2023-03-19T22:51:02.813Z,86.75
2023-03-19T22:53:33.501Z,87.02
2023-03-19T22:56:01.983Z,84.98
2023-03-19T22:58:34.852Z,83.56
2023-03-19T23:01:03.693Z,83.73
2023-03-19T23:03:32.293Z,82.13
2023-03-19T23:06:02.397Z,82.85
2023-03-19T23:08:31.409Z,83.29
2023-03-19T23:10:59.522Z,83.70
2023-03-19T23:13:28.399Z,84.32
2023-03-19T23:18:42.990Z,85.09
2023-03-19T23:21:14.938Z,84.32
2023-03-19T23:23:43.161Z,82.98
2023-03-19T23:26:28.535Z,83.46
2023-03-19T23:29:01.032Z,83.55
2023-03-19T23:31:34.331Z,84.07
2023-03-19T23:34:02.146Z,82.54
2023-03-19T23:36:32.656Z,81.58
2023-03-19T23:39:03.326Z,79.45
2023-03-19T23:41:34.211Z,80.98
2023-03-19T23:44:08.678Z,80.30
2023-03-19T23:46:39.940Z,78.60
2023-03-19T23:49:13.380Z,78.68
2023-03-19T23:51:41.818Z,80.74
2023-03-19T23:54:26.415Z,80.75
2023-03-19T23:56:54.598Z,79.90
2023-03-19T23:59:22.410Z,81.14
